createdAt,value
2019-04-20T00:03:34.296Z,2.87
2019-04-20T00:08:29.645Z,4.27
2019-04-20T00:13:36.594Z,3.97
2019-04-20T00:18:36.889Z,2.83
2019-04-20T00:23:46.235Z,4.27
2019-04-20T00:29:02.307Z,3.20
2019-04-20T00:33:58.355Z,3.73
2019-04-20T00:38:51.983Z,3.37
2019-04-20T00:43:49.182Z,3.63
2019-04-20T00:48:55.905Z,3.80
2019-04-20T00:53:53.842Z,4.13
2019-04-20T00:59:05.794Z,4.10
2019-04-20T01:04:16.361Z,3.60
2019-04-20T01:08:59.216Z,4.50
2019-04-20T01:14:04.657Z,3.87
2019-04-20T01:19:00.274Z,4.10
2019-04-20T01:24:03.545Z,3.67
2019-04-20T01:29:13.409Z,3.70
2019-04-20T01:34:14.672Z,3.80
2019-04-20T01:39:16.394Z,3.60
2019-04-20T01:44:07.129Z,3.87
2019-04-20T01:49:11.498Z,3.93
2019-04-20T01:54:29.862Z,3.87
2019-04-20T01:59:46.106Z,3.57
2019-04-20T02:04:58.645Z,3.83
2019-04-20T02:09:59.945Z,3.00
2019-04-20T02:15:01.115Z,4.43
2019-04-20T02:20:16.532Z,3.50
2019-04-20T02:24:59.563Z,3.97
2019-04-20T02:30:30.129Z,4.23
2019-04-20T02:36:08.194Z,3.80
2019-04-20T02:40:58.383Z,3.83
2019-04-20T02:50:59.044Z,5.33
2019-04-20T02:56:08.599Z,5.10
2019-04-20T03:00:56.302Z,4.33
2019-04-20T03:05:43.214Z,4.60
2019-04-20T03:11:03.649Z,4.80
2019-04-20T03:15:56.453Z,4.07
2019-04-20T03:21:04.582Z,4.43
2019-04-20T03:26:13.791Z,6.00
2019-04-20T03:31:41.546Z,5.07
2019-04-20T03:36:23.172Z,4.97
2019-04-20T03:41:05.228Z,4.87
2019-04-20T03:46:01.442Z,5.07
2019-04-20T03:51:17.104Z,4.47
2019-04-20T03:56:34.672Z,5.60
2019-04-20T04:06:44.365Z,5.57
2019-04-20T04:11:56.019Z,5.20
2019-04-20T04:16:45.697Z,5.27
2019-04-20T04:21:59.486Z,6.10
2019-04-20T04:26:54.837Z,6.07
2019-04-20T04:32:12.789Z,5.50
2019-04-20T04:37:03.672Z,5.37
2019-04-20T04:42:14.635Z,5.80
2019-04-20T04:46:56.069Z,6.10
2019-04-20T04:51:58.553Z,6.10
2019-04-20T04:56:52.576Z,5.60
2019-04-20T05:01:55.462Z,6.60
2019-04-20T05:07:07.921Z,6.77
2019-04-20T05:12:02.326Z,6.80
2019-04-20T05:17:11.699Z,6.33
2019-04-20T05:22:25.002Z,6.30
2019-04-20T05:27:36.142Z,5.90
2019-04-20T05:32:24.948Z,6.37
2019-04-20T05:37:47.540Z,6.17
2019-04-20T05:42:48.353Z,6.13
2019-04-20T05:47:48.252Z,6.17
2019-04-20T05:52:56.154Z,5.93
2019-04-20T05:57:56.656Z,6.57
2019-04-20T06:02:56.607Z,6.17
2019-04-20T06:08:03.484Z,6.40
2019-04-20T06:13:00.286Z,6.63
2019-04-20T06:18:27.851Z,7.00
2019-04-20T06:23:50.849Z,5.83
2019-04-20T06:28:40.570Z,6.30
2019-04-20T06:39:38.622Z,6.30
2019-04-20T06:54:53.956Z,6.10
2019-04-20T07:00:00.408Z,5.63
2019-04-20T07:04:59.444Z,5.80
2019-04-20T07:10:11.009Z,5.20
2019-04-20T07:14:49.632Z,7.07
2019-04-20T07:20:09.856Z,5.50
2019-04-20T07:25:16.098Z,4.57
2019-04-20T07:30:16.243Z,5.27
2019-04-20T07:35:21.698Z,5.97
2019-04-20T07:40:21.644Z,5.37
2019-04-20T07:50:18.638Z,4.63
2019-04-20T08:00:35.478Z,4.13
2019-04-20T08:05:41.890Z,3.37
2019-04-20T08:10:47.439Z,3.37
2019-04-20T08:16:06.634Z,3.93
2019-04-20T08:20:52.832Z,3.80
2019-04-20T08:25:47.053Z,3.43
2019-04-20T08:31:20.327Z,3.70
2019-04-20T08:36:36.021Z,3.20
2019-04-20T08:41:25.078Z,3.50
2019-04-20T08:46:32.117Z,3.70
2019-04-20T08:51:44.679Z,3.77
2019-04-20T08:56:29.089Z,3.40
2019-04-20T09:01:24.569Z,3.80
2019-04-20T09:06:33.670Z,3.73
2019-04-20T09:11:45.216Z,3.27
2019-04-20T09:16:26.950Z,4.07
2019-04-20T09:21:34.553Z,3.70
2019-04-20T09:26:43.252Z,3.50
2019-04-20T09:31:51.957Z,3.03
2019-04-20T09:37:04.679Z,2.60
2019-04-20T09:42:00.694Z,3.73
2019-04-20T09:46:59.469Z,3.53
2019-04-20T09:52:15.671Z,3.10
2019-04-20T09:57:22.922Z,3.50
2019-04-20T10:02:07.684Z,3.00
2019-04-20T10:07:06.693Z,3.60
2019-04-20T10:12:03.791Z,2.93
2019-04-20T10:17:03.591Z,3.10
2019-04-20T10:22:04.558Z,2.60
2019-04-20T10:27:04.522Z,3.70
2019-04-20T10:32:10.244Z,3.53
2019-04-20T10:37:13.401Z,3.40
2019-04-20T10:42:14.227Z,3.20
2019-04-20T10:47:14.738Z,3.70
2019-04-20T10:52:15.875Z,3.40
2019-04-20T10:57:15.686Z,4.07
2019-04-20T11:02:16.048Z,3.73
2019-04-20T11:07:16.580Z,3.50
2019-04-20T11:12:16.670Z,3.40
2019-04-20T11:17:16.436Z,3.17
2019-04-20T11:22:16.662Z,3.33
2019-04-20T11:27:16.429Z,3.57
2019-04-20T11:32:18.056Z,3.00
2019-04-20T11:37:19.285Z,3.60
2019-04-20T11:42:19.532Z,3.87
2019-04-20T11:47:19.386Z,4.00
2019-04-20T11:52:21.428Z,3.90
2019-04-20T11:57:21.542Z,2.83
2019-04-20T12:02:39.803Z,3.97
2019-04-20T12:07:55.419Z,3.90
2019-04-20T12:12:55.810Z,4.07
2019-04-20T12:17:55.708Z,3.30
2019-04-20T12:22:55.716Z,3.83
2019-04-20T12:27:58.636Z,3.27
2019-04-20T12:33:01.499Z,3.20
2019-04-20T12:37:58.937Z,3.77
2019-04-20T12:42:59.206Z,3.90
2019-04-20T12:47:59.632Z,3.30
2019-04-20T12:53:00.184Z,4.00
2019-04-20T12:58:00.640Z,3.80
2019-04-20T13:03:01.174Z,3.70
2019-04-20T13:08:02.973Z,4.30
2019-04-20T13:13:10.288Z,4.90
2019-04-20T13:18:11.517Z,4.10
2019-04-20T13:23:11.314Z,4.03
2019-04-20T13:28:11.084Z,3.60
2019-04-20T13:33:11.845Z,3.90
2019-04-20T13:38:12.020Z,4.13
2019-04-20T13:43:12.204Z,4.77
2019-04-20T13:48:12.913Z,3.90
2019-04-20T13:53:12.654Z,5.00
2019-04-20T13:58:31.579Z,4.53
2019-04-20T14:03:32.281Z,3.60
2019-04-20T14:08:33.686Z,3.73
2019-04-20T14:13:38.965Z,3.97
2019-04-20T14:18:35.389Z,3.90
2019-04-20T14:23:35.099Z,4.70
2019-04-20T14:28:34.750Z,4.60
2019-04-20T14:33:34.872Z,3.77
2019-04-20T14:38:36.139Z,3.50
2019-04-20T14:43:38.223Z,3.50
2019-04-20T14:48:39.099Z,4.13
2019-04-20T14:53:38.738Z,4.17
2019-04-20T14:58:45.308Z,3.57
2019-04-20T15:03:45.455Z,3.73
2019-04-20T15:08:45.285Z,3.33
2019-04-20T15:13:44.938Z,3.77
2019-04-20T15:18:51.792Z,3.27
2019-04-20T15:23:51.234Z,3.57
2019-04-20T15:28:52.395Z,3.93
2019-04-20T15:33:52.815Z,3.20
2019-04-20T15:38:53.351Z,3.43
2019-04-20T15:43:53.308Z,3.57
2019-04-20T15:48:52.966Z,3.70
2019-04-20T15:53:53.533Z,3.63
2019-04-20T15:58:54.558Z,3.43
2019-04-20T16:03:59.407Z,3.47
2019-04-20T16:09:01.939Z,3.60
2019-04-20T16:14:05.050Z,4.10
2019-04-20T16:19:14.646Z,3.90
2019-04-20T16:24:13.207Z,3.40
2019-04-20T16:29:15.418Z,4.40
2019-04-20T16:34:15.949Z,4.83
2019-04-20T16:39:16.531Z,5.37
2019-04-20T16:44:17.551Z,6.40
2019-04-20T16:49:17.378Z,5.80
2019-04-20T16:54:17.595Z,6.43
2019-04-20T16:59:19.192Z,6.60
2019-04-20T17:04:22.376Z,6.33
2019-04-20T17:09:21.962Z,6.40
2019-04-20T17:14:23.765Z,6.70
2019-04-20T17:19:23.919Z,7.87
2019-04-20T17:24:24.994Z,6.60
2019-04-20T17:29:30.110Z,6.03
2019-04-20T17:34:48.205Z,7.50
2019-04-20T17:39:45.296Z,5.77
2019-04-20T17:44:47.857Z,5.83
2019-04-20T17:49:57.129Z,7.17
2019-04-20T17:54:47.334Z,7.47
2019-04-20T17:59:55.423Z,7.20
2019-04-20T18:05:26.922Z,6.70
2019-04-20T18:10:26.258Z,7.90
2019-04-20T18:15:31.475Z,7.43
2019-04-20T18:20:23.226Z,7.63
2019-04-20T18:25:50.750Z,7.67
2019-04-20T18:30:57.351Z,8.37
2019-04-20T18:35:54.051Z,8.63
2019-04-20T18:41:01.236Z,8.60
2019-04-20T18:46:15.096Z,9.90
2019-04-20T18:50:57.467Z,9.80
2019-04-20T18:55:59.457Z,8.53
2019-04-20T19:00:59.075Z,10.60
2019-04-20T19:06:00.076Z,10.50
2019-04-20T19:11:06.730Z,11.13
2019-04-20T19:16:30.666Z,10.57
2019-04-20T19:21:21.578Z,11.60
2019-04-20T19:26:23.217Z,11.03
2019-04-20T19:31:41.042Z,11.80
2019-04-20T19:36:33.531Z,11.50
2019-04-20T19:41:39.083Z,13.23
2019-04-20T19:46:48.250Z,12.77
2019-04-20T19:51:55.677Z,11.20
2019-04-20T19:56:44.969Z,12.93
2019-04-20T20:01:33.754Z,12.57
2019-04-20T20:06:42.668Z,12.43
2019-04-20T20:11:39.121Z,12.13
2019-04-20T20:16:56.262Z,12.37
2019-04-20T20:21:54.468Z,12.80
2019-04-20T20:26:44.653Z,13.33
2019-04-20T20:32:01.794Z,12.80
2019-04-20T20:36:51.489Z,11.10
2019-04-20T20:41:56.379Z,11.37
2019-04-20T20:46:58.687Z,10.43
2019-04-20T20:52:09.801Z,11.97
2019-04-20T20:56:59.851Z,12.10
2019-04-20T21:02:00.950Z,11.30
2019-04-20T21:06:52.801Z,10.60
2019-04-20T21:12:00.720Z,11.40
2019-04-20T21:17:02.902Z,10.27
2019-04-20T21:22:04.894Z,11.27
2019-04-20T21:27:01.608Z,12.00
2019-04-20T21:32:08.179Z,12.43
2019-04-20T21:37:09.928Z,13.57
2019-04-20T21:42:10.400Z,14.63
2019-04-20T21:47:05.286Z,14.37
2019-04-20T21:52:16.074Z,12.67
2019-04-20T21:57:09.294Z,13.20
2019-04-20T22:02:16.719Z,13.80
2019-04-20T22:07:12.380Z,13.00
2019-04-20T22:12:12.202Z,14.43
2019-04-20T22:17:16.284Z,13.30
2019-04-20T22:22:30.820Z,14.50
2019-04-20T22:27:22.002Z,14.03
2019-04-20T22:32:17.351Z,15.63
2019-04-20T22:37:22.961Z,14.57
2019-04-20T22:42:20.480Z,14.03
2019-04-20T22:47:25.483Z,15.43
2019-04-20T22:52:39.033Z,13.90
2019-04-20T22:57:39.586Z,14.57
2019-04-20T23:02:26.906Z,13.50
2019-04-20T23:07:26.950Z,13.70
2019-04-20T23:12:27.553Z,12.70
2019-04-20T23:17:35.918Z,12.27
2019-04-20T23:22:36.846Z,12.07
2019-04-20T23:27:35.122Z,12.70
2019-04-20T23:32:33.831Z,12.80
2019-04-20T23:37:36.806Z,14.30
2019-04-20T23:42:44.543Z,12.67
2019-04-20T23:47:56.028Z,12.87
2019-04-20T23:53:09.989Z,13.50
2019-04-20T23:58:00.723Z,15.37
